BOE777W NGTA-NGTA
Flight info
| Callsign | BOE777W |
|---|---|
| Flight time | N/A |
| Altitude | 15000 |
| Route | DCT NADAN DCT |
| Aircraft | B77W/H-SDE1E2E3FGHIJ2J3J4J5M1RWXY/LB1D1 |
Departure
| Time | 2026-04-30 07:24 |
|---|---|
| Airport | Bonriki International Airport (NGTA) |
Arrival
| Time | N/A |
|---|---|
| Airport | Bonriki International Airport (NGTA) |
| Time | Latitude | Longitude | Altitude | Speed | Heading |
|---|---|---|---|---|---|
| 2026-04-30 07:22 | 1.38202 | 173.14342 | 36 ft | 19 kts | 275° |
| 2026-04-30 07:22 | 1.38224 | 173.14192 | 36 ft | 23 kts | 284° |
| 2026-04-30 07:23 | 1.38259 | 173.14020 | 35 ft | 27 kts | 281° |
| 2026-04-30 07:23 | 1.38266 | 173.13924 | 34 ft | 8 kts | 168° |
| 2026-04-30 07:23 | 1.38235 | 173.14079 | 36 ft | 59 kts | 97° |
| 2026-04-30 07:23 | 1.38150 | 173.14818 | 39 ft | 153 kts | 96° |
| 2026-04-30 07:24 | 1.38000 | 173.16130 | 260 ft | 215 kts | 97° |
| 2026-04-30 07:24 | 1.37795 | 173.17592 | 1683 ft | 215 kts | 98° |
| 2026-04-30 07:24 | 1.37589 | 173.19045 | 2702 ft | 223 kts | 101° |
| 2026-04-30 07:24 | 1.37016 | 173.20517 | 3561 ft | 240 kts | 121° |
| 2026-04-30 07:25 | 1.35820 | 173.21770 | 4433 ft | 260 kts | 144° |
| 2026-04-30 07:25 | 1.34124 | 173.22438 | 5467 ft | 273 kts | 169° |
| 2026-04-30 07:25 | 1.32197 | 173.22293 | 6516 ft | 286 kts | 196° |
| 2026-04-30 07:25 | 1.30463 | 173.21303 | 7513 ft | 296 kts | 216° |
| 2026-04-30 07:26 | 1.28839 | 173.20015 | 8579 ft | 299 kts | 215° |
| 2026-04-30 07:26 | 1.27180 | 173.18780 | 9516 ft | 305 kts | 213° |
| 2026-04-30 07:26 | 1.25399 | 173.17522 | 10444 ft | 314 kts | 212° |
| 2026-04-30 07:26 | 1.23553 | 173.16244 | 11135 ft | 330 kts | 212° |
| 2026-04-30 07:27 | 1.21582 | 173.14885 | 11799 ft | 348 kts | 213° |
| 2026-04-30 07:27 | 1.19561 | 173.13492 | 12469 ft | 364 kts | 212° |
| 2026-04-30 07:27 | 1.17419 | 173.12016 | 13171 ft | 378 kts | 212° |
| 2026-04-30 07:27 | 1.15207 | 173.10490 | 13880 ft | 391 kts | 213° |
| 2026-04-30 07:28 | 1.12928 | 173.08919 | 14560 ft | 405 kts | 213° |
| 2026-04-30 07:28 | 1.10595 | 173.07187 | 14823 ft | 428 kts | 219° |
| 2026-04-30 07:28 | 1.08482 | 173.05014 | 14834 ft | 434 kts | 230° |
| 2026-04-30 07:28 | 1.06787 | 173.02527 | 14836 ft | 437 kts | 240° |
| 2026-04-30 07:29 | 1.05522 | 172.99745 | 14836 ft | 438 kts | 250° |
| 2026-04-30 07:29 | 1.04755 | 172.96786 | 14837 ft | 438 kts | 260° |
| 2026-04-30 07:29 | 1.04510 | 172.93741 | 14838 ft | 440 kts | 270° |
| 2026-04-30 07:29 | 1.04788 | 172.90723 | 14836 ft | 438 kts | 281° |
| 2026-04-30 07:30 | 1.06894 | 172.84992 | 14839 ft | 437 kts | 301° |
| 2026-04-30 07:30 | 1.08617 | 172.82530 | 14837 ft | 435 kts | 311° |
| 2026-04-30 07:30 | 1.10760 | 172.80371 | 14837 ft | 435 kts | 321° |
| 2026-04-30 07:31 | 1.13242 | 172.78612 | 14840 ft | 432 kts | 331° |
| 2026-04-30 07:31 | 1.15940 | 172.77321 | 14841 ft | 429 kts | 341° |
| 2026-04-30 07:31 | 1.18807 | 172.76504 | 14844 ft | 427 kts | 351° |
| 2026-04-30 07:31 | 1.21773 | 172.76180 | 14850 ft | 425 kts | 0° |
| 2026-04-30 07:32 | 1.24747 | 172.76355 | 14849 ft | 426 kts | 10° |
| 2026-04-30 07:32 | 1.27661 | 172.77029 | 14846 ft | 423 kts | 19° |
| 2026-04-30 07:32 | 1.30362 | 172.78154 | 14846 ft | 421 kts | 29° |
| 2026-04-30 07:32 | 1.32877 | 172.79735 | 14843 ft | 420 kts | 38° |
| 2026-04-30 07:33 | 1.35056 | 172.81676 | 14843 ft | 419 kts | 47° |
| 2026-04-30 07:33 | 1.36870 | 172.83926 | 14842 ft | 418 kts | 57° |
| 2026-04-30 07:33 | 1.38306 | 172.86470 | 14840 ft | 416 kts | 66° |
| 2026-04-30 07:33 | 1.39328 | 172.89157 | 14838 ft | 416 kts | 72° |
| 2026-04-30 07:34 | 1.40250 | 172.91908 | 14836 ft | 415 kts | 72° |
| 2026-04-30 07:34 | 1.41174 | 172.94676 | 14839 ft | 416 kts | 72° |
| 2026-04-30 07:34 | 1.42077 | 172.97380 | 14839 ft | 415 kts | 72° |
| 2026-04-30 07:34 | 1.43003 | 173.00154 | 14831 ft | 416 kts | 72° |
| 2026-04-30 07:35 | 1.43916 | 173.02892 | 14831 ft | 417 kts | 72° |
| 2026-04-30 07:35 | 1.44838 | 173.05653 | 14836 ft | 416 kts | 72° |
| 2026-04-30 07:35 | 1.45754 | 173.08398 | 14834 ft | 416 kts | 72° |
| 2026-04-30 07:35 | 1.46658 | 173.11108 | 14829 ft | 416 kts | 72° |
| 2026-04-30 07:36 | 1.47577 | 173.13861 | 14840 ft | 415 kts | 72° |
| 2026-04-30 07:36 | 1.48496 | 173.16602 | 14833 ft | 416 kts | 71° |
| 2026-04-30 07:36 | 1.49679 | 173.19246 | 14834 ft | 417 kts | 62° |
| 2026-04-30 07:36 | 1.51319 | 173.21655 | 14841 ft | 418 kts | 52° |
| 2026-04-30 07:37 | 1.53345 | 173.23782 | 14837 ft | 418 kts | 44° |
| 2026-04-30 07:37 | 1.55559 | 173.25656 | 14837 ft | 419 kts | 39° |
| 2026-04-30 07:37 | 1.57930 | 173.27412 | 14838 ft | 420 kts | 36° |
| 2026-04-30 07:37 | 1.60377 | 173.29053 | 14841 ft | 421 kts | 34° |
| 2026-04-30 07:38 | 1.62873 | 173.30618 | 14839 ft | 420 kts | 33° |
| 2026-04-30 07:38 | 1.65375 | 173.32104 | 14840 ft | 421 kts | 31° |
| 2026-04-30 07:38 | 1.67942 | 173.33556 | 14841 ft | 421 kts | 30° |
| 2026-04-30 07:38 | 1.70530 | 173.34966 | 14841 ft | 421 kts | 30° |
| 2026-04-30 07:39 | 1.73159 | 173.36362 | 14842 ft | 421 kts | 29° |
| 2026-04-30 07:39 | 1.75750 | 173.37714 | 14842 ft | 422 kts | 29° |
| 2026-04-30 07:39 | 1.78418 | 173.39087 | 14842 ft | 421 kts | 28° |
| 2026-04-30 07:39 | 1.81038 | 173.40424 | 14842 ft | 422 kts | 28° |
| 2026-04-30 07:40 | 1.83671 | 173.41759 | 14840 ft | 421 kts | 28° |
| 2026-04-30 07:40 | 1.86292 | 173.43083 | 14839 ft | 422 kts | 28° |
| 2026-04-30 07:40 | 1.88953 | 173.44423 | 14839 ft | 422 kts | 28° |
| 2026-04-30 07:40 | 1.91563 | 173.45732 | 14839 ft | 421 kts | 28° |
| 2026-04-30 07:41 | 1.94194 | 173.47052 | 14839 ft | 421 kts | 28° |
| 2026-04-30 07:41 | 1.96866 | 173.48392 | 14841 ft | 421 kts | 28° |
| 2026-04-30 07:41 | 1.99465 | 173.49693 | 14841 ft | 421 kts | 28° |
| 2026-04-30 07:41 | 2.02132 | 173.51028 | 14840 ft | 422 kts | 28° |
| 2026-04-30 07:42 | 2.04767 | 173.52347 | 14840 ft | 421 kts | 28° |
| 2026-04-30 07:42 | 2.07375 | 173.53651 | 14840 ft | 422 kts | 28° |
| 2026-04-30 07:42 | 2.10018 | 173.54973 | 14841 ft | 421 kts | 28° |
| 2026-04-30 07:42 | 2.12663 | 173.56296 | 14840 ft | 422 kts | 28° |
| 2026-04-30 07:43 | 2.15300 | 173.57616 | 14841 ft | 422 kts | 28° |
| 2026-04-30 07:43 | 2.17942 | 173.58936 | 14844 ft | 421 kts | 28° |
| 2026-04-30 07:43 | 2.20571 | 173.60251 | 14842 ft | 422 kts | 28° |
| 2026-04-30 07:43 | 2.23228 | 173.61580 | 14844 ft | 422 kts | 28° |
| 2026-04-30 07:44 | 2.25840 | 173.62886 | 14843 ft | 422 kts | 28° |
| 2026-04-30 07:44 | 2.28496 | 173.64215 | 14846 ft | 422 kts | 28° |
| 2026-04-30 07:44 | 2.31134 | 173.65533 | 14849 ft | 422 kts | 28° |
| 2026-04-30 07:44 | 2.33803 | 173.66870 | 14851 ft | 422 kts | 28° |
| 2026-04-30 07:45 | 2.36416 | 173.68176 | 14855 ft | 422 kts | 28° |
| 2026-04-30 07:45 | 2.39071 | 173.69504 | 14855 ft | 421 kts | 28° |
| 2026-04-30 07:45 | 2.41711 | 173.70825 | 14858 ft | 422 kts | 28° |
| 2026-04-30 07:45 | 2.44334 | 173.72137 | 14862 ft | 422 kts | 28° |
| 2026-04-30 07:46 | 2.46958 | 173.73450 | 14864 ft | 421 kts | 28° |
| 2026-04-30 07:46 | 2.49628 | 173.74786 | 14860 ft | 422 kts | 28° |
| 2026-04-30 07:46 | 2.52265 | 173.76105 | 14864 ft | 422 kts | 28° |
| 2026-04-30 07:46 | 2.54909 | 173.77429 | 14865 ft | 422 kts | 28° |
| 2026-04-30 07:47 | 2.57520 | 173.78735 | 14866 ft | 422 kts | 28° |
| 2026-04-30 07:47 | 2.60177 | 173.80064 | 14863 ft | 422 kts | 28° |
| 2026-04-30 07:47 | 2.62801 | 173.81378 | 14864 ft | 422 kts | 28° |
| 2026-04-30 07:47 | 2.65431 | 173.82693 | 14863 ft | 421 kts | 28° |
| 2026-04-30 07:48 | 2.68085 | 173.84023 | 14864 ft | 421 kts | 28° |
| 2026-04-30 07:48 | 2.70735 | 173.85349 | 14862 ft | 422 kts | 28° |
| 2026-04-30 07:48 | 2.73345 | 173.86655 | 14860 ft | 421 kts | 28° |
| 2026-04-30 07:48 | 2.75981 | 173.87975 | 14861 ft | 421 kts | 28° |
| 2026-04-30 07:49 | 2.78624 | 173.89298 | 14858 ft | 421 kts | 28° |
| 2026-04-30 07:49 | 2.81270 | 173.90622 | 14856 ft | 421 kts | 28° |
| 2026-04-30 07:49 | 2.83916 | 173.91946 | 14860 ft | 422 kts | 28° |
| 2026-04-30 07:49 | 2.86539 | 173.93260 | 14861 ft | 422 kts | 28° |
| 2026-04-30 07:50 | 2.89167 | 173.94575 | 14860 ft | 422 kts | 28° |
| 2026-04-30 07:50 | 2.91817 | 173.95901 | 14855 ft | 422 kts | 28° |
| 2026-04-30 07:50 | 2.94478 | 173.97235 | 14852 ft | 421 kts | 28° |
| 2026-04-30 07:50 | 2.97100 | 173.98547 | 14847 ft | 421 kts | 28° |
| 2026-04-30 07:51 | 2.99626 | 174.00011 | 14841 ft | 421 kts | 36° |
| 2026-04-30 07:51 | 3.01875 | 174.01901 | 14840 ft | 419 kts | 45° |
| 2026-04-30 07:51 | 3.03964 | 174.03958 | 14844 ft | 419 kts | 46° |
| 2026-04-30 07:51 | 3.06038 | 174.06029 | 14844 ft | 419 kts | 46° |
| 2026-04-30 07:52 | 3.08110 | 174.08098 | 14844 ft | 419 kts | 46° |
| 2026-04-30 07:52 | 3.10158 | 174.10144 | 14844 ft | 419 kts | 46° |
| 2026-04-30 07:52 | 3.12253 | 174.12236 | 14846 ft | 419 kts | 46° |
| 2026-04-30 07:52 | 3.14314 | 174.14294 | 14845 ft | 419 kts | 46° |
| 2026-04-30 07:53 | 3.16386 | 174.16365 | 14844 ft | 420 kts | 46° |
| 2026-04-30 07:53 | 3.18468 | 174.18445 | 14845 ft | 420 kts | 46° |
| 2026-04-30 07:53 | 3.20543 | 174.20517 | 14846 ft | 420 kts | 46° |
| 2026-04-30 07:53 | 3.22605 | 174.22577 | 14845 ft | 419 kts | 46° |
| 2026-04-30 07:54 | 3.24698 | 174.24669 | 14845 ft | 420 kts | 46° |
| 2026-04-30 07:54 | 3.26758 | 174.26727 | 14843 ft | 419 kts | 46° |
| 2026-04-30 07:54 | 3.28850 | 174.28818 | 14843 ft | 420 kts | 46° |
| 2026-04-30 07:54 | 3.30912 | 174.30879 | 14843 ft | 419 kts | 46° |
| 2026-04-30 07:55 | 3.32985 | 174.32951 | 14842 ft | 420 kts | 46° |
| 2026-04-30 07:55 | 3.35059 | 174.35023 | 14841 ft | 419 kts | 46° |
| 2026-04-30 07:55 | 3.37125 | 174.37088 | 14842 ft | 420 kts | 46° |
| 2026-04-30 07:55 | 3.39182 | 174.39145 | 14841 ft | 419 kts | 46° |
| 2026-04-30 07:56 | 3.41253 | 174.41214 | 14842 ft | 419 kts | 46° |
| 2026-04-30 07:56 | 3.43321 | 174.43282 | 14775 ft | 406 kts | 46° |
| 2026-04-30 07:56 | 3.45246 | 174.45204 | 14887 ft | 374 kts | 46° |
| 2026-04-30 07:56 | 3.47077 | 174.47035 | 14866 ft | 380 kts | 46° |
| 2026-04-30 07:57 | 3.49029 | 174.48990 | 14864 ft | 409 kts | 46° |
| 2026-04-30 07:57 | 3.51091 | 174.51053 | 14861 ft | 419 kts | 46° |
| 2026-04-30 07:57 | 3.51934 | 174.51895 | 14861 ft | 420 kts | 46° |
| 2026-04-30 07:57 | 3.52308 | 174.52269 | 15054 ft | 420 kts | 45° |
| 2026-04-30 07:58 | 3.54389 | 174.54350 | 14887 ft | 423 kts | 45° |
| 2026-04-30 07:58 | 3.56488 | 174.56450 | 14865 ft | 422 kts | 45° |
| 2026-04-30 07:58 | 3.58578 | 174.58540 | 14863 ft | 422 kts | 45° |
| 2026-04-30 07:58 | 3.60682 | 174.60645 | 14829 ft | 421 kts | 45° |
| 2026-04-30 07:59 | 3.62691 | 174.62653 | 14843 ft | 395 kts | 45° |
| 2026-04-30 07:59 | 3.64584 | 174.64546 | 14852 ft | 364 kts | 45° |
| 2026-04-30 07:59 | 3.66314 | 174.66278 | 14854 ft | 337 kts | 45° |
| 2026-04-30 08:00 | 3.69524 | 174.69490 | 14869 ft | 321 kts | 45° |
| 2026-04-30 08:00 | 3.71123 | 174.71089 | 14862 ft | 316 kts | 45° |
| 2026-04-30 08:00 | 3.72725 | 174.72693 | 14870 ft | 334 kts | 45° |
| 2026-04-30 08:00 | 3.74403 | 174.74371 | 14865 ft | 340 kts | 45° |
| 2026-04-30 08:01 | 3.76076 | 174.76045 | 14863 ft | 340 kts | 45° |
| 2026-04-30 08:01 | 3.77807 | 174.77722 | 14862 ft | 341 kts | 40° |
| 2026-04-30 08:01 | 3.79809 | 174.79153 | 14869 ft | 367 kts | 30° |
| 2026-04-30 08:01 | 3.82182 | 174.80261 | 14864 ft | 376 kts | 19° |
| 2026-04-30 08:02 | 3.87407 | 174.81026 | 14867 ft | 396 kts | 357° |
| 2026-04-30 08:02 | 3.90235 | 174.80615 | 14865 ft | 417 kts | 346° |
| 2026-04-30 08:03 | 3.95169 | 174.78143 | 14848 ft | 381 kts | 315° |
| 2026-04-30 08:03 | 3.97716 | 174.73224 | 14868 ft | 419 kts | 287° |
| 2026-04-30 08:03 | 3.98542 | 174.70416 | 14860 ft | 422 kts | 284° |
| 2026-04-30 08:04 | 3.99147 | 174.67513 | 14863 ft | 422 kts | 281° |
| 2026-04-30 08:04 | 3.99687 | 174.64601 | 14863 ft | 422 kts | 280° |
| 2026-04-30 08:04 | 4.00168 | 174.61728 | 14857 ft | 422 kts | 276° |
| 2026-04-30 08:04 | 4.00290 | 174.58769 | 14863 ft | 423 kts | 271° |
| 2026-04-30 08:05 | 4.00303 | 174.55835 | 14863 ft | 422 kts | 270° |
| 2026-04-30 08:05 | 4.00315 | 174.52873 | 14863 ft | 422 kts | 270° |
| 2026-04-30 08:05 | 4.00331 | 174.49876 | 14863 ft | 422 kts | 270° |
| 2026-04-30 08:05 | 4.00347 | 174.46912 | 14863 ft | 422 kts | 270° |
| 2026-04-30 08:06 | 4.00362 | 174.43935 | 14863 ft | 422 kts | 270° |
| 2026-04-30 08:06 | 4.00378 | 174.41002 | 14863 ft | 422 kts | 270° |
| 2026-04-30 08:06 | 4.00393 | 174.38002 | 14863 ft | 422 kts | 270° |
| 2026-04-30 08:06 | 4.00408 | 174.35045 | 14863 ft | 422 kts | 270° |
| 2026-04-30 08:07 | 4.00423 | 174.32112 | 14863 ft | 422 kts | 270° |
| 2026-04-30 08:07 | 4.00437 | 174.29152 | 14863 ft | 422 kts | 270° |
| 2026-04-30 08:07 | 4.00452 | 174.26155 | 14863 ft | 422 kts | 270° |
| 2026-04-30 08:07 | 4.00466 | 174.23201 | 14863 ft | 422 kts | 270° |
| 2026-04-30 08:08 | 4.00480 | 174.20224 | 14863 ft | 422 kts | 270° |
| 2026-04-30 08:08 | 4.00494 | 174.17267 | 14863 ft | 422 kts | 270° |
| 2026-04-30 08:08 | 4.00508 | 174.14290 | 14863 ft | 422 kts | 270° |
| 2026-04-30 08:08 | 4.00521 | 174.11346 | 14863 ft | 422 kts | 270° |
| 2026-04-30 08:09 | 4.00535 | 174.08356 | 14863 ft | 422 kts | 270° |
| 2026-04-30 08:09 | 4.00546 | 174.05688 | 14863 ft | 422 kts | 270° |
| 2026-04-30 08:09 | 4.00549 | 174.05121 | 14863 ft | 422 kts | 270° |
| 2026-04-30 08:10 | 4.00554 | 174.03943 | 14864 ft | 422 kts | 270° |
| 2026-04-30 08:10 | 4.00569 | 174.02022 | 14865 ft | 414 kts | 270° |
| 2026-04-30 08:10 | 4.00576 | 174.01338 | 14848 ft | 412 kts | 271° |
| 2026-04-30 08:10 | 4.00572 | 173.98379 | 14867 ft | 436 kts | 270° |
| 2026-04-30 08:11 | 4.00560 | 173.96445 | 14864 ft | 442 kts | 270° |
| 2026-04-30 08:11 | 4.00535 | 173.94369 | 14861 ft | 459 kts | 270° |
| 2026-04-30 08:11 | 4.00498 | 173.92572 | 14862 ft | 476 kts | 270° |
| 2026-04-30 08:11 | 4.00439 | 173.91025 | 14717 ft | 494 kts | 266° |
| 2026-04-30 08:12 | 4.00280 | 173.87546 | 15193 ft | 499 kts | 275° |
| 2026-04-30 08:12 | 4.00414 | 173.84007 | 14429 ft | 525 kts | 276° |
| 2026-04-30 08:12 | 4.00489 | 173.80370 | 14261 ft | 516 kts | 271° |
| 2026-04-30 08:12 | 4.00366 | 173.76752 | 14516 ft | 519 kts | 270° |
| 2026-04-30 08:13 | 4.00228 | 173.73134 | 14768 ft | 517 kts | 270° |
| 2026-04-30 08:13 | 4.00094 | 173.69551 | 14862 ft | 516 kts | 270° |
| 2026-04-30 08:13 | 3.99962 | 173.65964 | 14868 ft | 516 kts | 270° |
| 2026-04-30 08:13 | 3.99830 | 173.62335 | 14870 ft | 516 kts | 270° |
| 2026-04-30 08:14 | 3.99698 | 173.58748 | 14871 ft | 516 kts | 270° |
| 2026-04-30 08:14 | 3.99566 | 173.55153 | 14869 ft | 516 kts | 271° |
| 2026-04-30 08:14 | 3.99539 | 173.51552 | 14874 ft | 515 kts | 273° |
| 2026-04-30 08:14 | 3.99550 | 173.47966 | 14874 ft | 515 kts | 273° |
| 2026-04-30 08:15 | 3.99564 | 173.44382 | 14874 ft | 515 kts | 273° |
| 2026-04-30 08:15 | 3.99578 | 173.40750 | 14875 ft | 515 kts | 273° |
| 2026-04-30 08:15 | 3.99592 | 173.37158 | 14876 ft | 515 kts | 273° |
| 2026-04-30 08:15 | 3.99606 | 173.33606 | 14862 ft | 515 kts | 273° |
| 2026-04-30 08:16 | 3.99619 | 173.29987 | 14852 ft | 515 kts | 273° |
| 2026-04-30 08:16 | 3.99633 | 173.26398 | 14852 ft | 515 kts | 273° |
| 2026-04-30 08:16 | 3.99646 | 173.22826 | 14853 ft | 515 kts | 273° |
| 2026-04-30 08:16 | 3.99659 | 173.19203 | 14854 ft | 515 kts | 273° |
| 2026-04-30 08:17 | 3.99672 | 173.15613 | 14855 ft | 515 kts | 273° |
| 2026-04-30 08:17 | 3.99684 | 173.12056 | 14856 ft | 515 kts | 273° |
| 2026-04-30 08:17 | 3.99697 | 173.08466 | 14857 ft | 515 kts | 273° |
| 2026-04-30 08:17 | 3.99709 | 173.04866 | 14858 ft | 515 kts | 273° |
| 2026-04-30 08:18 | 3.99713 | 173.03673 | 14858 ft | 515 kts | 273° |
| 2026-04-30 08:18 | 3.99733 | 172.97679 | 14860 ft | 515 kts | 273° |
| 2026-04-30 08:18 | 3.99745 | 172.94098 | 14861 ft | 515 kts | 273° |
| 2026-04-30 08:18 | 3.99757 | 172.90498 | 14862 ft | 515 kts | 273° |
| 2026-04-30 08:19 | 3.99769 | 172.86874 | 14863 ft | 515 kts | 273° |
| 2026-04-30 08:19 | 3.99780 | 172.83283 | 14864 ft | 515 kts | 273° |
| 2026-04-30 08:19 | 3.99792 | 172.79654 | 14865 ft | 515 kts | 273° |
| 2026-04-30 08:19 | 3.99803 | 172.76038 | 14866 ft | 515 kts | 273° |
| 2026-04-30 08:20 | 3.99814 | 172.72432 | 14867 ft | 515 kts | 273° |
| 2026-04-30 08:20 | 3.99824 | 172.68835 | 14868 ft | 515 kts | 273° |
| 2026-04-30 08:20 | 3.99835 | 172.65221 | 14869 ft | 515 kts | 273° |
| 2026-04-30 08:20 | 3.99842 | 172.62797 | 14870 ft | 515 kts | 273° |
| 2026-04-30 08:21 | 3.99856 | 172.57997 | 14871 ft | 515 kts | 273° |
| 2026-04-30 08:21 | 3.99866 | 172.54395 | 14872 ft | 515 kts | 273° |
| 2026-04-30 08:21 | 3.99876 | 172.50784 | 14873 ft | 515 kts | 273° |
| 2026-04-30 08:21 | 3.99886 | 172.47154 | 14874 ft | 515 kts | 273° |
| 2026-04-30 08:22 | 3.99896 | 172.43555 | 14875 ft | 515 kts | 273° |
| 2026-04-30 08:22 | 3.99902 | 172.41188 | 14876 ft | 515 kts | 273° |
| 2026-04-30 08:22 | 3.99915 | 172.36369 | 14877 ft | 515 kts | 273° |
| 2026-04-30 08:22 | 3.99924 | 172.32771 | 14857 ft | 515 kts | 273° |
| 2026-04-30 08:23 | 3.99933 | 172.29141 | 14852 ft | 515 kts | 273° |
| 2026-04-30 08:23 | 3.99942 | 172.25540 | 14843 ft | 513 kts | 273° |
| 2026-04-30 08:23 | 3.99969 | 172.23805 | 14858 ft | 490 kts | 273° |
| 2026-04-30 08:23 | 4.00463 | 172.20885 | 17252 ft | 383 kts | 289° |
| 2026-04-30 08:24 | 4.01249 | 172.18907 | 20593 ft | 296 kts | 295° |
| 2026-04-30 08:24 | 4.02162 | 172.17105 | 21081 ft | 303 kts | 301° |
| 2026-04-30 08:24 | 4.03413 | 172.15297 | 20819 ft | 315 kts | 310° |
| 2026-04-30 08:24 | 4.04910 | 172.13680 | 20000 ft | 323 kts | 315° |
| 2026-04-30 08:25 | 4.06528 | 172.12058 | 18670 ft | 345 kts | 315° |
| 2026-04-30 08:25 | 4.08265 | 172.10315 | 17000 ft | 372 kts | 315° |
| 2026-04-30 08:25 | 4.08889 | 172.09689 | 16471 ft | 378 kts | 315° |
| 2026-04-30 08:25 | 4.11982 | 172.06589 | 15032 ft | 374 kts | 315° |
| 2026-04-30 08:26 | 4.13888 | 172.04799 | 14871 ft | 378 kts | 321° |
| 2026-04-30 08:26 | 4.16093 | 172.03336 | 14860 ft | 377 kts | 332° |
| 2026-04-30 08:26 | 4.18511 | 172.02283 | 14861 ft | 378 kts | 341° |
| 2026-04-30 08:26 | 4.21054 | 172.01547 | 14862 ft | 378 kts | 347° |
| 2026-04-30 08:27 | 4.23653 | 172.01044 | 14862 ft | 378 kts | 351° |
| 2026-04-30 08:27 | 4.26290 | 172.00702 | 14862 ft | 378 kts | 354° |
| 2026-04-30 08:27 | 4.28894 | 172.00475 | 14869 ft | 378 kts | 356° |
| 2026-04-30 08:27 | 4.31560 | 172.00317 | 14873 ft | 381 kts | 357° |
| 2026-04-30 08:28 | 4.34245 | 172.00212 | 14863 ft | 377 kts | 358° |
| 2026-04-30 08:28 | 4.36891 | 172.00143 | 14863 ft | 377 kts | 359° |
| 2026-04-30 08:28 | 4.39577 | 172.00096 | 14869 ft | 392 kts | 359° |
| 2026-04-30 08:28 | 4.42429 | 172.00064 | 14868 ft | 416 kts | 359° |
| 2026-04-30 08:29 | 4.45366 | 172.00044 | 14864 ft | 422 kts | 360° |
| 2026-04-30 08:29 | 4.48322 | 172.00030 | 14863 ft | 422 kts | 360° |
| 2026-04-30 08:29 | 4.51286 | 172.00021 | 14863 ft | 422 kts | 360° |
| 2026-04-30 08:29 | 4.54235 | 172.00015 | 14863 ft | 422 kts | 360° |
| 2026-04-30 08:30 | 4.57200 | 172.00011 | 14863 ft | 422 kts | 360° |
| 2026-04-30 08:30 | 4.60153 | 172.00008 | 14863 ft | 422 kts | 360° |
| 2026-04-30 08:30 | 4.63117 | 172.00006 | 14863 ft | 422 kts | 360° |
| 2026-04-30 08:30 | 4.66077 | 172.00005 | 14863 ft | 422 kts | 360° |
| 2026-04-30 08:31 | 4.69029 | 172.00003 | 14863 ft | 422 kts | 360° |
| 2026-04-30 08:31 | 4.71991 | 172.00001 | 14863 ft | 422 kts | 360° |
| 2026-04-30 08:31 | 4.74927 | 172.00001 | 14863 ft | 422 kts | 360° |
| 2026-04-30 08:31 | 4.77903 | 172.00001 | 14863 ft | 422 kts | 360° |
| 2026-04-30 08:32 | 4.80843 | 172.00000 | 14863 ft | 422 kts | 360° |
| 2026-04-30 08:32 | 4.83824 | 172.00017 | 14859 ft | 422 kts | 2° |
| 2026-04-30 08:32 | 4.86780 | 172.00401 | 14860 ft | 422 kts | 12° |
| 2026-04-30 08:32 | 4.89605 | 172.01291 | 14859 ft | 422 kts | 22° |
| 2026-04-30 08:33 | 4.92217 | 172.02655 | 14859 ft | 422 kts | 33° |
| 2026-04-30 08:33 | 4.94503 | 172.04439 | 14858 ft | 422 kts | 43° |
| 2026-04-30 08:33 | 4.96476 | 172.06659 | 14858 ft | 422 kts | 54° |
| 2026-04-30 08:33 | 4.98003 | 172.09189 | 14858 ft | 422 kts | 64° |
| 2026-04-30 08:34 | 4.99033 | 172.11916 | 14857 ft | 422 kts | 75° |
| 2026-04-30 08:34 | 4.99562 | 172.14822 | 14857 ft | 422 kts | 84° |
| 2026-04-30 08:34 | 4.99740 | 172.17789 | 14862 ft | 422 kts | 88° |
| 2026-04-30 08:34 | 4.99844 | 172.20737 | 14862 ft | 422 kts | 88° |
| 2026-04-30 08:35 | 4.99916 | 172.23660 | 14863 ft | 422 kts | 89° |
| 2026-04-30 08:35 | 4.99970 | 172.26643 | 14863 ft | 422 kts | 89° |
| 2026-04-30 08:35 | 5.00010 | 172.29604 | 14863 ft | 422 kts | 89° |
| 2026-04-30 08:35 | 5.00039 | 172.32523 | 14863 ft | 422 kts | 89° |
| 2026-04-30 08:36 | 5.00062 | 172.35475 | 14863 ft | 422 kts | 89° |
| 2026-04-30 08:36 | 5.00080 | 172.38426 | 14863 ft | 422 kts | 90° |